createdAt,value
2022-08-25T00:00:03.503Z,68.08
2022-08-25T00:00:13.448Z,67.84
2022-08-25T00:00:25.408Z,67.92
2022-08-25T00:00:33.607Z,68.04
2022-08-25T00:00:45.380Z,67.92
2022-08-25T00:00:53.576Z,68.13
2022-08-25T00:01:03.430Z,68.13
2022-08-25T00:01:13.550Z,68.00
2022-08-25T00:01:23.418Z,68.04
2022-08-25T00:01:35.398Z,68.36
2022-08-25T00:01:45.381Z,68.46
2022-08-25T00:01:53.581Z,68.54
2022-08-25T00:02:05.380Z,68.31
2022-08-25T00:02:13.693Z,68.20
2022-08-25T00:02:23.661Z,67.91
2022-08-25T00:02:33.623Z,67.97
2022-08-25T00:02:54.995Z,68.00
2022-08-25T00:02:56.104Z,68.32
2022-08-25T00:03:03.661Z,68.45
2022-08-25T00:03:13.625Z,68.22
2022-08-25T00:03:23.629Z,68.08
2022-08-25T00:03:35.979Z,68.11
2022-08-25T00:03:44.210Z,68.64
2022-08-25T00:03:54.309Z,68.32
2022-08-25T00:04:06.160Z,68.30
2022-08-25T00:04:16.160Z,68.37
2022-08-25T00:04:24.212Z,68.56
2022-08-25T00:04:34.259Z,68.37
2022-08-25T00:04:44.788Z,68.44
2022-08-25T00:04:54.391Z,68.77
2022-08-25T00:05:06.599Z,68.49
2022-08-25T00:05:14.411Z,68.80
2022-08-25T00:05:26.388Z,68.63
2022-08-25T00:05:34.409Z,68.71
2022-08-25T00:05:44.456Z,68.59
2022-08-25T00:05:54.454Z,68.54
2022-08-25T00:06:06.315Z,68.53
2022-08-25T00:06:15.332Z,68.70
2022-08-25T00:06:26.330Z,68.63
2022-08-25T00:06:36.331Z,68.69
2022-08-25T00:06:44.368Z,68.71
2022-08-25T00:06:54.371Z,68.60
2022-08-25T00:07:04.396Z,68.69
2022-08-25T00:07:14.466Z,68.82
2022-08-25T00:07:26.306Z,69.23
2022-08-25T00:07:34.361Z,69.09
2022-08-25T00:07:46.315Z,68.84
2022-08-25T00:07:54.361Z,68.97
2022-08-25T00:08:06.673Z,68.80
2022-08-25T00:08:16.407Z,69.08
2022-08-25T00:08:26.400Z,69.00
2022-08-25T00:08:36.391Z,69.03
2022-08-25T00:08:44.532Z,69.07
2022-08-25T00:08:56.412Z,68.93
2022-08-25T00:09:06.397Z,69.17
2022-08-25T00:09:14.441Z,69.13
2022-08-25T00:09:24.448Z,69.01
2022-08-25T00:09:36.402Z,69.10
2022-08-25T00:09:45.895Z,69.22
2022-08-25T00:09:54.900Z,69.14
2022-08-25T00:10:06.412Z,69.09
2022-08-25T00:10:16.381Z,69.23
2022-08-25T00:10:26.382Z,69.21
2022-08-25T00:10:36.373Z,69.17
2022-08-25T00:10:53.969Z,69.19
2022-08-25T00:11:03.485Z,69.58
2022-08-25T00:11:06.042Z,69.72
2022-08-25T00:11:15.982Z,69.33
2022-08-25T00:11:27.951Z,69.26
2022-08-25T00:11:35.964Z,69.33
2022-08-25T00:11:45.982Z,69.13
2022-08-25T00:11:56.920Z,69.14
2022-08-25T00:12:05.992Z,69.21
2022-08-25T00:12:15.965Z,69.10
2022-08-25T00:12:27.918Z,69.12
2022-08-25T00:12:35.952Z,69.26
2022-08-25T00:12:46.832Z,69.06
2022-08-25T00:12:57.923Z,69.14
2022-08-25T00:13:08.112Z,69.18
2022-08-25T00:13:17.915Z,69.18
2022-08-25T00:13:25.942Z,69.15
2022-08-25T00:13:35.971Z,68.99
2022-08-25T00:13:47.913Z,69.03
2022-08-25T00:13:55.952Z,69.22
2022-08-25T00:14:07.906Z,69.06
2022-08-25T00:14:15.951Z,69.34
2022-08-25T00:14:25.953Z,69.12
2022-08-25T00:14:37.923Z,69.20
2022-08-25T00:14:47.905Z,69.40
2022-08-25T00:14:55.940Z,69.34
2022-08-25T00:15:05.994Z,69.21
2022-08-25T00:15:17.908Z,69.30
2022-08-25T00:15:27.935Z,69.46
2022-08-25T00:15:37.922Z,69.39
2022-08-25T00:15:45.963Z,69.41
2022-08-25T00:15:57.951Z,69.31
2022-08-25T00:16:07.911Z,69.56
2022-08-25T00:16:16.009Z,69.58
2022-08-25T00:16:25.943Z,69.44
2022-08-25T00:16:37.894Z,69.56
2022-08-25T00:16:45.914Z,69.73
2022-08-25T00:16:57.893Z,69.52
2022-08-25T00:17:07.918Z,69.78
2022-08-25T00:17:15.935Z,69.72
2022-08-25T00:17:27.896Z,69.56
2022-08-25T00:17:35.916Z,69.68
2022-08-25T00:17:46.878Z,69.52
2022-08-25T00:17:55.924Z,69.64
2022-08-25T00:18:19.687Z,69.51
2022-08-25T00:18:20.025Z,70.00
2022-08-25T00:18:26.294Z,70.06
2022-08-25T00:18:37.894Z,69.86
2022-08-25T00:18:47.854Z,69.83
2022-08-25T00:18:57.854Z,69.65
2022-08-25T00:19:07.355Z,69.64
2022-08-25T00:19:15.925Z,69.58
2022-08-25T00:19:28.230Z,69.51
2022-08-25T00:19:35.935Z,69.70
2022-08-25T00:19:45.947Z,69.51
2022-08-25T00:19:57.898Z,69.53
2022-08-25T00:20:07.896Z,69.69
2022-08-25T00:20:17.875Z,69.61
2022-08-25T00:20:27.877Z,69.64
2022-08-25T00:20:37.875Z,69.60
2022-08-25T00:20:48.998Z,70.00
2022-08-25T00:20:59.425Z,69.80
2022-08-25T00:21:07.455Z,69.62
2022-08-25T00:21:19.426Z,69.50
2022-08-25T00:21:28.905Z,69.65
2022-08-25T00:21:37.464Z,69.59
2022-08-25T00:21:47.486Z,69.49
2022-08-25T00:21:59.417Z,69.52
2022-08-25T00:22:08.910Z,69.64
2022-08-25T00:22:17.453Z,69.51
2022-08-25T00:22:29.406Z,69.45
2022-08-25T00:22:37.456Z,69.59
2022-08-25T00:22:49.425Z,69.43
2022-08-25T00:22:57.446Z,69.60
2022-08-25T00:23:09.406Z,69.44
2022-08-25T00:23:19.406Z,69.60
2022-08-25T00:23:27.441Z,69.54
2022-08-25T00:23:39.409Z,69.40
2022-08-25T00:23:48.011Z,69.56
2022-08-25T00:23:57.455Z,69.43
2022-08-25T00:24:07.455Z,69.44
2022-08-25T00:24:19.756Z,69.45
2022-08-25T00:24:29.591Z,69.61
2022-08-25T00:24:39.587Z,69.49
2022-08-25T00:24:47.626Z,69.44
2022-08-25T00:24:57.695Z,69.33
2022-08-25T00:25:09.608Z,69.38
2022-08-25T00:25:17.658Z,69.50
2022-08-25T00:25:27.628Z,69.37
2022-08-25T00:25:37.637Z,69.43
2022-08-25T00:25:47.627Z,69.41
2022-08-25T00:25:59.586Z,69.39
2022-08-25T00:26:09.571Z,69.51
2022-08-25T00:26:17.640Z,69.44
2022-08-25T00:26:29.567Z,69.27
2022-08-25T00:26:39.557Z,69.46
2022-08-25T00:26:49.586Z,69.43
2022-08-25T00:26:57.620Z,69.41
2022-08-25T00:27:07.628Z,69.27
2022-08-25T00:27:19.611Z,69.34
2022-08-25T00:27:27.607Z,69.50
2022-08-25T00:27:39.581Z,69.34
2022-08-25T00:27:49.067Z,69.49
2022-08-25T00:27:57.609Z,69.43
2022-08-25T00:28:08.729Z,69.31
2022-08-25T00:28:19.547Z,69.50
2022-08-25T00:28:29.547Z,69.55
2022-08-25T00:28:39.059Z,69.47
2022-08-25T00:28:47.595Z,69.45
2022-08-25T00:29:01.255Z,69.35
2022-08-25T00:29:09.037Z,69.81
2022-08-25T00:29:17.604Z,69.65
2022-08-25T00:29:27.585Z,69.42
2022-08-25T00:29:39.548Z,69.51
2022-08-25T00:29:47.938Z,69.63
2022-08-25T00:29:57.598Z,69.51
2022-08-25T00:30:09.540Z,69.44
2022-08-25T00:30:17.616Z,69.84
2022-08-25T00:30:27.588Z,69.70
2022-08-25T00:30:39.558Z,69.61
2022-08-25T00:30:48.087Z,69.72
2022-08-25T00:30:57.687Z,69.52
2022-08-25T00:31:08.100Z,69.55
2022-08-25T00:31:18.106Z,69.57
2022-08-25T00:31:38.545Z,69.60
2022-08-25T00:31:39.281Z,70.09
2022-08-25T00:31:49.122Z,69.73
2022-08-25T00:32:00.118Z,69.65
2022-08-25T00:32:09.118Z,69.69
2022-08-25T00:32:19.125Z,69.58
2022-08-25T00:32:31.078Z,69.58
2022-08-25T00:32:41.060Z,69.71
2022-08-25T00:32:55.089Z,69.62
2022-08-25T00:33:00.110Z,69.87
2022-08-25T00:33:09.103Z,69.71
2022-08-25T00:33:19.119Z,69.55
2022-08-25T00:33:31.072Z,69.59
2022-08-25T00:33:39.958Z,69.69
2022-08-25T00:33:51.048Z,69.56
2022-08-25T00:34:01.040Z,69.65
2022-08-25T00:34:09.120Z,69.64
2022-08-25T00:34:21.059Z,69.46
2022-08-25T00:34:29.624Z,69.70
2022-08-25T00:34:41.062Z,69.57
2022-08-25T00:34:51.040Z,69.70
2022-08-25T00:35:01.085Z,69.64
2022-08-25T00:35:10.547Z,69.62
2022-08-25T00:35:21.050Z,69.61
2022-08-25T00:35:31.030Z,69.58
2022-08-25T00:35:41.037Z,69.64
2022-08-25T00:35:50.529Z,69.61
2022-08-25T00:35:59.090Z,69.61
2022-08-25T00:36:09.270Z,69.53
2022-08-25T00:36:19.061Z,69.65
2022-08-25T00:36:29.121Z,69.65
2022-08-25T00:36:41.010Z,69.65
2022-08-25T00:36:49.080Z,69.76
2022-08-25T00:36:59.891Z,69.58
2022-08-25T00:37:11.048Z,69.71
2022-08-25T00:37:21.026Z,69.73
2022-08-25T00:37:29.072Z,69.64
2022-08-25T00:37:41.151Z,69.54
2022-08-25T00:37:51.015Z,69.78
2022-08-25T00:37:59.068Z,69.70
2022-08-25T00:38:10.040Z,69.53
2022-08-25T00:38:21.021Z,69.66
2022-08-25T00:38:29.071Z,69.68
2022-08-25T00:38:41.022Z,69.56
2022-08-25T00:38:51.016Z,69.77
2022-08-25T00:39:01.013Z,69.72
2022-08-25T00:39:11.001Z,69.71
2022-08-25T00:39:19.063Z,69.73
2022-08-25T00:39:29.086Z,69.60
2022-08-25T00:39:39.074Z,69.64
2022-08-25T00:39:49.079Z,69.68
2022-08-25T00:39:59.145Z,69.71
2022-08-25T00:40:09.122Z,69.66
2022-08-25T00:40:21.043Z,69.70
2022-08-25T00:40:31.072Z,69.82
2022-08-25T00:40:39.041Z,69.73
2022-08-25T00:40:49.061Z,69.59
2022-08-25T00:41:01.005Z,69.67
2022-08-25T00:41:10.992Z,69.79
2022-08-25T00:41:20.983Z,69.82
2022-08-25T00:41:29.052Z,69.73
2022-08-25T00:41:41.012Z,69.67
2022-08-25T00:41:50.995Z,69.86
2022-08-25T00:42:00.994Z,69.88
2022-08-25T00:42:16.064Z,69.92
2022-08-25T00:42:20.551Z,70.28
2022-08-25T00:42:29.033Z,70.13
2022-08-25T00:42:41.003Z,69.94
2022-08-25T00:42:49.032Z,70.17
2022-08-25T00:42:59.032Z,70.02
2022-08-25T00:43:09.055Z,70.26
2022-08-25T00:43:19.042Z,70.31
2022-08-25T00:43:30.983Z,70.36
2022-08-25T00:43:40.992Z,70.58
2022-08-25T00:43:50.972Z,70.58
2022-08-25T00:44:00.981Z,70.62
2022-08-25T00:44:10.962Z,70.65
2022-08-25T00:44:20.953Z,70.69
2022-08-25T00:44:29.013Z,70.83
2022-08-25T00:44:39.021Z,70.75
2022-08-25T00:44:49.913Z,70.85
2022-08-25T00:45:00.484Z,71.01
2022-08-25T00:45:09.080Z,71.01
2022-08-25T00:45:20.955Z,70.87
2022-08-25T00:45:29.103Z,71.01
2022-08-25T00:45:39.534Z,70.81
2022-08-25T00:45:49.017Z,70.88
2022-08-25T00:45:59.020Z,70.81
2022-08-25T00:46:09.112Z,70.87
2022-08-25T00:46:19.131Z,70.94
2022-08-25T00:46:29.834Z,71.03
2022-08-25T00:46:40.987Z,71.11
2022-08-25T00:46:49.010Z,71.15
2022-08-25T00:46:58.997Z,71.00
2022-08-25T00:47:10.949Z,71.09
2022-08-25T00:47:19.004Z,71.26
2022-08-25T00:47:31.009Z,71.12
2022-08-25T00:47:40.945Z,71.38
2022-08-25T00:47:48.993Z,71.35
2022-08-25T00:48:00.117Z,71.20
2022-08-25T00:48:10.964Z,71.33
2022-08-25T00:48:20.935Z,71.32
2022-08-25T00:48:30.944Z,71.31
2022-08-25T00:48:40.944Z,71.29
2022-08-25T00:48:50.923Z,71.29
2022-08-25T00:49:00.934Z,71.26
2022-08-25T00:49:08.983Z,71.20
2022-08-25T00:49:25.257Z,71.47
2022-08-25T00:49:32.017Z,71.77
2022-08-25T00:49:40.044Z,71.45
2022-08-25T00:49:50.056Z,71.17
2022-08-25T00:50:00.091Z,71.15
2022-08-25T00:50:10.296Z,71.16
2022-08-25T00:50:20.045Z,71.19
2022-08-25T00:50:32.035Z,71.16
2022-08-25T00:50:41.998Z,71.31
2022-08-25T00:50:50.046Z,71.44
2022-08-25T00:51:02.007Z,71.45
2022-08-25T00:51:11.984Z,71.39
2022-08-25T00:51:22.050Z,71.36
2022-08-25T00:51:30.058Z,71.38
2022-08-25T00:51:42.015Z,71.24
2022-08-25T00:51:51.502Z,71.67
2022-08-25T00:52:00.382Z,71.63
2022-08-25T00:52:10.039Z,71.46
2022-08-25T00:52:20.079Z,71.41
2022-08-25T00:52:31.995Z,71.42
2022-08-25T00:52:40.026Z,71.48
2022-08-25T00:52:50.077Z,71.26
2022-08-25T00:53:00.038Z,71.35
2022-08-25T00:53:10.026Z,71.40
2022-08-25T00:53:20.016Z,71.43
2022-08-25T00:53:30.134Z,71.42
2022-08-25T00:53:40.116Z,71.46
2022-08-25T00:53:51.965Z,71.43
2022-08-25T00:54:00.017Z,71.56
2022-08-25T00:54:10.107Z,71.32
2022-08-25T00:54:21.966Z,71.39
2022-08-25T00:54:31.968Z,71.52
2022-08-25T00:54:41.983Z,71.41
2022-08-25T00:54:51.966Z,71.40
2022-08-25T00:55:07.660Z,71.35
2022-08-25T00:55:13.067Z,71.79
2022-08-25T00:55:23.536Z,71.61
2022-08-25T00:55:32.466Z,71.47
2022-08-25T00:55:43.557Z,71.42
2022-08-25T00:55:51.605Z,71.47
2022-08-25T00:56:03.526Z,71.29
2022-08-25T00:56:13.526Z,71.42
2022-08-25T00:56:23.544Z,71.36
2022-08-25T00:56:31.596Z,71.35
2022-08-25T00:56:41.587Z,71.19
2022-08-25T00:56:53.541Z,71.26
2022-08-25T00:57:02.255Z,71.41
2022-08-25T00:57:13.518Z,71.27
2022-08-25T00:57:34.107Z,71.38
2022-08-25T00:57:34.540Z,71.66
2022-08-25T00:57:43.308Z,71.47
2022-08-25T00:57:54.037Z,71.21
2022-08-25T00:58:03.193Z,71.21
2022-08-25T00:58:15.069Z,71.12
2022-08-25T00:58:23.248Z,71.21
2022-08-25T00:58:35.037Z,71.06
2022-08-25T00:58:44.540Z,71.23
2022-08-25T00:58:53.139Z,71.25
2022-08-25T00:59:03.115Z,71.11
2022-08-25T00:59:15.091Z,71.15
2022-08-25T00:59:23.096Z,71.30
2022-08-25T00:59:33.135Z,71.05
2022-08-25T00:59:43.176Z,71.06
2022-08-25T00:59:53.128Z,71.05
2022-08-25T01:00:03.099Z,71.03
2022-08-25T01:00:13.160Z,71.06
2022-08-25T01:00:25.058Z,71.06
2022-08-25T01:00:33.187Z,71.14
2022-08-25T01:00:45.050Z,70.89
2022-08-25T01:00:53.111Z,71.04
2022-08-25T01:01:03.239Z,70.83
2022-08-25T01:01:13.197Z,70.87
2022-08-25T01:01:23.137Z,70.91
2022-08-25T01:01:33.238Z,70.87
2022-08-25T01:01:43.153Z,70.91
2022-08-25T01:01:53.938Z,70.88
2022-08-25T01:02:03.089Z,70.91
2022-08-25T01:02:15.083Z,70.83
2022-08-25T01:02:25.068Z,71.03
2022-08-25T01:02:35.118Z,70.95
2022-08-25T01:02:45.100Z,70.90
2022-08-25T01:02:53.169Z,70.89
2022-08-25T01:03:03.144Z,70.76
2022-08-25T01:03:13.068Z,70.93
2022-08-25T01:03:23.811Z,70.97
2022-08-25T01:03:35.937Z,71.10
2022-08-25T01:03:44.499Z,71.20
2022-08-25T01:03:55.009Z,71.20
2022-08-25T01:04:03.071Z,71.08
2022-08-25T01:04:13.358Z,70.97
2022-08-25T01:04:23.388Z,71.07
2022-08-25T01:04:35.029Z,71.15
2022-08-25T01:04:48.981Z,71.31
2022-08-25T01:04:55.978Z,71.68
2022-08-25T01:05:04.027Z,71.46
2022-08-25T01:05:14.871Z,71.26
2022-08-25T01:05:24.049Z,71.47
2022-08-25T01:05:35.972Z,71.36
2022-08-25T01:05:44.002Z,71.58
2022-08-25T01:05:54.029Z,71.34
2022-08-25T01:06:04.093Z,71.47
2022-08-25T01:06:14.700Z,71.54
2022-08-25T01:06:25.939Z,71.57
2022-08-25T01:06:35.950Z,71.64
2022-08-25T01:06:44.000Z,71.59
2022-08-25T01:06:54.018Z,71.47
2022-08-25T01:07:05.957Z,71.57
2022-08-25T01:07:17.964Z,72.17
2022-08-25T01:07:26.848Z,72.21
2022-08-25T01:07:36.840Z,72.09
2022-08-25T01:07:46.840Z,72.03
2022-08-25T01:07:57.529Z,72.04
2022-08-25T01:08:07.038Z,72.29
2022-08-25T01:08:16.537Z,72.29
2022-08-25T01:08:24.880Z,72.11
2022-08-25T01:08:34.911Z,72.00
2022-08-25T01:08:45.812Z,71.99
2022-08-25T01:08:54.892Z,72.17
2022-08-25T01:09:04.918Z,72.08
2022-08-25T01:09:15.771Z,72.06
2022-08-25T01:09:24.880Z,72.16
2022-08-25T01:09:34.944Z,72.09
2022-08-25T01:09:46.832Z,72.12
2022-08-25T01:09:54.890Z,72.32
2022-08-25T01:10:06.841Z,72.11
2022-08-25T01:10:14.880Z,72.35
2022-08-25T01:10:24.879Z,72.18
2022-08-25T01:10:36.858Z,72.28
2022-08-25T01:10:46.822Z,72.46
2022-08-25T01:10:56.823Z,72.38
2022-08-25T01:11:06.811Z,72.36
2022-08-25T01:11:14.865Z,72.31
2022-08-25T01:11:26.831Z,72.20
2022-08-25T01:11:36.824Z,72.42
2022-08-25T01:11:46.802Z,72.32
2022-08-25T01:11:54.869Z,72.28
2022-08-25T01:12:06.810Z,72.15
2022-08-25T01:12:16.825Z,72.38
2022-08-25T01:12:26.302Z,72.40
2022-08-25T01:12:34.853Z,72.33
2022-08-25T01:12:46.812Z,72.26
2022-08-25T01:12:56.811Z,72.42
2022-08-25T01:13:04.842Z,72.34
2022-08-25T01:13:16.584Z,72.17
2022-08-25T01:13:26.802Z,72.32
2022-08-25T01:13:36.792Z,72.21
2022-08-25T01:13:46.792Z,72.21
2022-08-25T01:13:56.793Z,72.14
2022-08-25T01:14:04.850Z,72.17
2022-08-25T01:14:16.816Z,72.00
2022-08-25T01:14:26.804Z,72.17
2022-08-25T01:14:34.852Z,72.15
2022-08-25T01:14:44.861Z,72.05
2022-08-25T01:14:56.812Z,72.12
2022-08-25T01:15:05.723Z,72.27
2022-08-25T01:15:14.841Z,72.12
2022-08-25T01:15:24.941Z,72.03
2022-08-25T01:15:36.835Z,72.06
2022-08-25T01:15:44.858Z,72.33
2022-08-25T01:15:55.718Z,72.22
2022-08-25T01:16:04.870Z,72.09
2022-08-25T01:16:14.902Z,71.94
2022-08-25T01:16:26.783Z,71.91
2022-08-25T01:16:34.822Z,71.91
2022-08-25T01:16:44.833Z,71.73
2022-08-25T01:16:56.763Z,71.79
2022-08-25T01:17:06.774Z,71.88
2022-08-25T01:17:14.837Z,71.76
2022-08-25T01:17:26.773Z,71.59
2022-08-25T01:17:36.763Z,71.72
2022-08-25T01:17:46.774Z,71.68
2022-08-25T01:17:54.843Z,71.67
2022-08-25T01:18:05.103Z,71.52
2022-08-25T01:18:14.954Z,71.72
2022-08-25T01:18:26.743Z,71.74
2022-08-25T01:18:34.833Z,71.87
2022-08-25T01:18:45.086Z,71.72
2022-08-25T01:18:54.804Z,71.79
2022-08-25T01:19:06.770Z,71.73
2022-08-25T01:19:15.405Z,71.81
2022-08-25T01:19:25.558Z,71.62
2022-08-25T01:19:34.854Z,71.67
2022-08-25T01:19:45.095Z,71.57
2022-08-25T01:19:55.767Z,71.64
2022-08-25T01:20:04.793Z,71.63
2022-08-25T01:20:14.838Z,71.56
2022-08-25T01:20:27.905Z,71.58
2022-08-25T01:20:34.888Z,71.96
2022-08-25T01:20:44.894Z,71.69
2022-08-25T01:20:55.134Z,71.60
2022-08-25T01:21:04.774Z,71.55
2022-08-25T01:21:15.240Z,71.52
2022-08-25T01:21:25.135Z,71.52
2022-08-25T01:21:35.174Z,71.50
2022-08-25T01:21:45.208Z,71.44
2022-08-25T01:21:54.997Z,71.45
2022-08-25T01:22:05.073Z,71.43
2022-08-25T01:22:16.734Z,71.45
2022-08-25T01:22:25.145Z,71.55
2022-08-25T01:22:35.182Z,71.38
2022-08-25T01:22:45.216Z,71.41
2022-08-25T01:22:55.733Z,71.82
2022-08-25T01:23:04.818Z,71.60
2022-08-25T01:23:14.834Z,71.45
2022-08-25T01:23:24.945Z,71.44
2022-08-25T01:23:34.815Z,71.43
2022-08-25T01:23:44.829Z,71.42
2022-08-25T01:23:55.263Z,71.40
2022-08-25T01:24:06.747Z,71.47
2022-08-25T01:24:14.799Z,71.57
2022-08-25T01:24:25.587Z,71.39
2022-08-25T01:24:34.826Z,71.49
2022-08-25T01:24:46.769Z,71.49
2022-08-25T01:24:54.808Z,71.68
2022-08-25T01:25:04.804Z,71.49
2022-08-25T01:25:14.843Z,71.59
2022-08-25T01:25:25.746Z,71.62
2022-08-25T01:25:36.736Z,71.70
2022-08-25T01:25:46.746Z,71.73
2022-08-25T01:25:54.786Z,71.66
2022-08-25T01:26:04.825Z,71.54
2022-08-25T01:26:16.729Z,71.58
2022-08-25T01:26:30.190Z,71.68
2022-08-25T01:26:34.826Z,71.91
2022-08-25T01:26:46.738Z,71.65
2022-08-25T01:26:56.739Z,71.76
2022-08-25T01:27:04.809Z,71.64
2022-08-25T01:27:16.743Z,71.50
2022-08-25T01:27:26.801Z,71.67
2022-08-25T01:27:36.717Z,71.63
2022-08-25T01:27:44.777Z,71.59
2022-08-25T01:27:54.797Z,71.45
2022-08-25T01:28:05.139Z,71.49
2022-08-25T01:28:16.736Z,71.53
2022-08-25T01:28:24.777Z,71.58
2022-08-25T01:28:36.729Z,71.36
2022-08-25T01:28:44.767Z,71.54
2022-08-25T01:28:55.667Z,71.34
2022-08-25T01:29:06.726Z,71.45
2022-08-25T01:29:14.768Z,71.48
2022-08-25T01:29:24.825Z,71.27
2022-08-25T01:29:36.717Z,71.37
2022-08-25T01:29:46.707Z,71.50
2022-08-25T01:29:55.568Z,71.36
2022-08-25T01:30:06.729Z,71.28
2022-08-25T01:30:16.724Z,71.36
2022-08-25T01:30:24.768Z,71.32
2022-08-25T01:30:36.739Z,71.16
2022-08-25T01:30:44.773Z,71.42
2022-08-25T01:30:55.764Z,71.23
2022-08-25T01:31:04.797Z,71.35
2022-08-25T01:31:24.105Z,71.68
2022-08-25T01:31:27.250Z,71.92
2022-08-25T01:31:38.336Z,71.57
2022-08-25T01:31:46.336Z,71.52
2022-08-25T01:31:57.181Z,71.33
2022-08-25T01:32:08.280Z,71.44
2022-08-25T01:32:16.307Z,71.49
2022-08-25T01:32:26.318Z,71.32
2022-08-25T01:32:38.268Z,71.34
2022-08-25T01:32:48.258Z,71.44
2022-08-25T01:32:57.078Z,71.38
2022-08-25T01:33:06.340Z,71.27
2022-08-25T01:33:16.360Z,71.24
2022-08-25T01:33:27.288Z,71.28
2022-08-25T01:33:36.469Z,71.32
2022-08-25T01:33:46.350Z,71.26
2022-08-25T01:33:56.387Z,71.33
2022-08-25T01:34:06.399Z,71.30
2022-08-25T01:34:18.275Z,71.33
2022-08-25T01:34:27.192Z,71.41
2022-08-25T01:34:38.288Z,71.31
2022-08-25T01:34:46.318Z,71.39
2022-08-25T01:34:56.879Z,71.26
2022-08-25T01:35:08.260Z,71.32
2022-08-25T01:35:17.749Z,71.36
2022-08-25T01:35:26.310Z,71.27
2022-08-25T01:35:38.249Z,71.18
2022-08-25T01:35:46.299Z,71.34
2022-08-25T01:35:56.340Z,71.19
2022-08-25T01:36:06.309Z,71.26
2022-08-25T01:36:18.228Z,71.25
2022-08-25T01:36:28.260Z,71.36
2022-08-25T01:36:38.242Z,71.34
2022-08-25T01:36:48.239Z,71.33
2022-08-25T01:36:56.281Z,71.34
2022-08-25T01:37:06.310Z,71.24
2022-08-25T01:37:18.250Z,71.33
2022-08-25T01:37:28.232Z,71.53
2022-08-25T01:37:38.235Z,71.42
2022-08-25T01:37:48.230Z,71.44
2022-08-25T01:37:56.287Z,71.41
2022-08-25T01:38:06.394Z,71.23
2022-08-25T01:38:16.288Z,71.34
2022-08-25T01:38:26.279Z,71.39
2022-08-25T01:38:36.297Z,71.35
2022-08-25T01:38:46.292Z,71.38
2022-08-25T01:38:58.240Z,71.35
2022-08-25T01:39:06.270Z,71.45
2022-08-25T01:39:18.280Z,71.25
2022-08-25T01:39:26.280Z,71.41
2022-08-25T01:39:38.220Z,71.27
2022-08-25T01:39:46.287Z,71.33
2022-08-25T01:39:56.302Z,71.21
2022-08-25T01:40:08.277Z,71.22
2022-08-25T01:40:18.319Z,71.35
2022-08-25T01:40:28.258Z,71.24
2022-08-25T01:40:37.732Z,71.19
2022-08-25T01:40:48.221Z,71.33
2022-08-25T01:40:58.223Z,71.35
2022-08-25T01:41:08.202Z,71.20
2022-08-25T01:41:16.370Z,71.20
2022-08-25T01:41:26.241Z,71.08
2022-08-25T01:41:36.268Z,71.12
2022-08-25T01:41:46.277Z,71.16
2022-08-25T01:41:58.251Z,71.20
2022-08-25T01:42:08.182Z,71.31
2022-08-25T01:42:18.193Z,71.23
2022-08-25T01:42:26.408Z,71.20
2022-08-25T01:42:38.193Z,71.08
2022-08-25T01:42:46.261Z,71.26
2022-08-25T01:42:58.217Z,71.02
2022-08-25T01:43:06.231Z,71.20
2022-08-25T01:43:16.486Z,70.93
2022-08-25T01:43:26.512Z,71.05
2022-08-25T01:43:36.791Z,71.03
2022-08-25T01:43:46.481Z,71.04
2022-08-25T01:43:56.321Z,71.00
2022-08-25T01:44:06.211Z,70.98
2022-08-25T01:44:18.454Z,71.12
2022-08-25T01:44:26.532Z,70.98
2022-08-25T01:44:37.235Z,70.82
2022-08-25T01:44:48.453Z,70.93
2022-08-25T01:44:56.472Z,70.99
2022-08-25T01:45:06.553Z,70.83
2022-08-25T01:45:16.593Z,70.88
2022-08-25T01:45:28.893Z,70.93
2022-08-25T01:45:38.562Z,71.07
2022-08-25T01:45:46.665Z,71.03
2022-08-25T01:45:58.613Z,70.89
2022-08-25T01:46:08.124Z,71.18
2022-08-25T01:46:16.639Z,71.14
2022-08-25T01:46:26.700Z,71.14
2022-08-25T01:46:38.004Z,71.23
2022-08-25T01:46:46.611Z,71.37
2022-08-25T01:46:58.542Z,71.22
2022-08-25T01:47:08.564Z,71.49
2022-08-25T01:47:16.613Z,71.44
2022-08-25T01:47:26.642Z,71.34
2022-08-25T01:47:36.600Z,71.39
2022-08-25T01:47:46.712Z,71.45
2022-08-25T01:47:56.674Z,71.47
2022-08-25T01:48:06.625Z,71.52
2022-08-25T01:48:16.732Z,71.53
2022-08-25T01:48:26.592Z,71.57
2022-08-25T01:48:38.552Z,71.55
2022-08-25T01:48:46.733Z,71.69
2022-08-25T01:48:56.770Z,71.49
2022-08-25T01:49:06.956Z,71.58
2022-08-25T01:49:18.582Z,71.64
2022-08-25T01:49:28.620Z,71.74
2022-08-25T01:49:36.615Z,71.68
2022-08-25T01:49:46.730Z,71.55
2022-08-25T01:49:56.779Z,71.67
2022-08-25T01:50:06.610Z,71.65
2022-08-25T01:50:16.734Z,71.67
2022-08-25T01:50:26.774Z,71.68
2022-08-25T01:50:36.581Z,71.66
2022-08-25T01:50:48.560Z,71.62
2022-08-25T01:50:58.045Z,71.69
2022-08-25T01:51:06.574Z,71.64
2022-08-25T01:51:16.598Z,71.49
2022-08-25T01:51:26.668Z,71.53
2022-08-25T01:51:37.335Z,71.52
2022-08-25T01:51:48.533Z,71.58
2022-08-25T01:51:58.536Z,71.59
2022-08-25T01:52:08.525Z,71.52
2022-08-25T01:52:18.038Z,71.54
2022-08-25T01:52:28.537Z,71.54
2022-08-25T01:52:38.540Z,71.56
2022-08-25T01:52:48.035Z,71.56
2022-08-25T01:52:58.536Z,71.56
2022-08-25T01:53:08.514Z,71.61
2022-08-25T01:53:18.516Z,71.59
2022-08-25T01:53:28.514Z,71.59
2022-08-25T01:53:38.515Z,71.57
2022-08-25T01:53:46.625Z,71.54
2022-08-25T01:53:56.545Z,71.42
2022-08-25T01:54:08.516Z,71.46
2022-08-25T01:54:17.572Z,71.62
2022-08-25T01:54:28.506Z,71.51
2022-08-25T01:54:36.552Z,71.61
2022-08-25T01:54:48.558Z,71.46
2022-08-25T01:54:58.013Z,71.69
2022-08-25T01:55:06.557Z,71.60
2022-08-25T01:55:18.515Z,71.49
2022-08-25T01:55:26.535Z,71.72
2022-08-25T01:55:36.556Z,71.59
2022-08-25T01:55:48.497Z,71.67
2022-08-25T01:55:58.495Z,71.85
2022-08-25T01:56:09.707Z,71.75
2022-08-25T01:56:18.011Z,71.90
2022-08-25T01:56:26.535Z,71.86
2022-08-25T01:56:38.506Z,71.60
2022-08-25T01:56:48.513Z,71.74
2022-08-25T01:56:56.537Z,71.68
2022-08-25T01:57:08.543Z,71.56
2022-08-25T01:57:18.499Z,71.83
2022-08-25T01:57:27.988Z,71.69
2022-08-25T01:57:38.486Z,71.65
2022-08-25T01:57:46.529Z,71.71
2022-08-25T01:57:58.506Z,71.62
2022-08-25T01:58:08.516Z,71.81
2022-08-25T01:58:18.496Z,71.77
2022-08-25T01:58:28.480Z,71.82
2022-08-25T01:58:38.484Z,71.92
2022-08-25T01:58:48.508Z,72.03
2022-08-25T01:58:56.527Z,72.05
2022-08-25T01:59:08.508Z,71.93
2022-08-25T01:59:21.643Z,72.17
2022-08-25T01:59:28.885Z,72.72
2022-08-25T01:59:38.201Z,72.47
2022-08-25T01:59:48.457Z,72.39
2022-08-25T01:59:58.036Z,72.37
2022-08-25T02:00:08.817Z,72.32
2022-08-25T02:00:20.018Z,72.45
2022-08-25T02:00:29.987Z,72.47
2022-08-25T02:00:40.023Z,72.42
2022-08-25T02:00:49.008Z,72.44
2022-08-25T02:01:00.075Z,72.47
2022-08-25T02:01:10.039Z,72.66
2022-08-25T02:01:20.106Z,72.69
2022-08-25T02:01:29.636Z,72.66
2022-08-25T02:01:40.171Z,72.62
2022-08-25T02:01:50.018Z,72.76
2022-08-25T02:02:00.387Z,72.71
2022-08-25T02:02:08.234Z,72.78
2022-08-25T02:02:18.510Z,72.71
2022-08-25T02:02:31.716Z,72.58
2022-08-25T02:02:38.330Z,73.08
2022-08-25T02:02:54.249Z,73.26
2022-08-25T02:02:59.876Z,73.42
2022-08-25T02:03:18.513Z,73.04
2022-08-25T02:03:21.408Z,73.32
2022-08-25T02:03:31.374Z,72.98
2022-08-25T02:03:42.058Z,73.01
2022-08-25T02:03:51.348Z,72.96
2022-08-25T02:04:03.328Z,72.91
2022-08-25T02:04:13.363Z,73.29
2022-08-25T02:04:21.783Z,73.37
2022-08-25T02:04:31.388Z,73.08
2022-08-25T02:04:44.560Z,73.04
2022-08-25T02:04:51.956Z,73.42
2022-08-25T02:05:01.364Z,73.33
2022-08-25T02:05:11.355Z,73.28
2022-08-25T02:05:23.795Z,73.29
2022-08-25T02:05:33.294Z,73.59
2022-08-25T02:05:42.808Z,73.58
2022-08-25T02:05:53.282Z,73.36
2022-08-25T02:06:01.344Z,73.33
2022-08-25T02:06:11.348Z,73.45
2022-08-25T02:06:21.353Z,73.41
2022-08-25T02:06:32.334Z,73.72
2022-08-25T02:06:41.339Z,73.53
2022-08-25T02:06:53.325Z,73.27
2022-08-25T02:07:03.299Z,73.45
2022-08-25T02:07:11.319Z,73.32
2022-08-25T02:07:22.227Z,73.18
2022-08-25T02:07:31.361Z,73.27
2022-08-25T02:07:43.301Z,73.19
2022-08-25T02:07:53.290Z,73.41
2022-08-25T02:08:03.324Z,73.36
2022-08-25T02:08:11.329Z,73.28
2022-08-25T02:08:23.289Z,73.11
2022-08-25T02:08:31.321Z,73.30
2022-08-25T02:08:43.279Z,73.01
2022-08-25T02:08:53.260Z,73.22
2022-08-25T02:09:02.769Z,73.14